createdAt,value
2019-02-24T00:00:33.808Z,4.60
2019-02-24T00:02:06.147Z,4.03
2019-02-24T00:03:38.698Z,7.47
2019-02-24T00:05:11.105Z,3.97
2019-02-24T00:06:43.429Z,5.17
2019-02-24T00:08:15.847Z,4.57
2019-02-24T00:09:48.176Z,4.20
2019-02-24T00:11:20.573Z,5.80
2019-02-24T00:12:53.104Z,3.70
2019-02-24T00:14:25.511Z,4.10
2019-02-24T00:15:57.919Z,6.53
2019-02-24T00:17:30.370Z,6.87
2019-02-24T00:19:03.860Z,7.10
2019-02-24T00:20:36.663Z,6.27
2019-02-24T00:24:09.091Z,3.97
2019-02-24T00:25:41.856Z,3.67
2019-02-24T00:27:14.251Z,3.60
2019-02-24T00:28:46.766Z,4.20
2019-02-24T00:30:19.187Z,5.30
2019-02-24T00:31:51.518Z,4.33
2019-02-24T00:33:23.921Z,4.57
2019-02-24T00:34:56.345Z,5.53
2019-02-24T00:36:28.810Z,5.43
2019-02-24T00:38:01.215Z,3.77
2019-02-24T00:39:33.580Z,4.70
2019-02-24T00:41:06.047Z,7.13
2019-02-24T00:42:38.379Z,5.07
2019-02-24T00:44:10.850Z,4.33
2019-02-24T00:45:43.279Z,4.13
2019-02-24T00:47:15.608Z,5.70
2019-02-24T00:48:48.079Z,5.33
2019-02-24T00:50:20.462Z,3.73
2019-02-24T00:51:52.798Z,3.77
2019-02-24T00:53:25.574Z,4.50
2019-02-24T00:54:58.051Z,4.90
2019-02-24T00:56:30.391Z,4.93
2019-02-24T00:58:02.723Z,4.43
2019-02-24T00:59:35.197Z,4.83
2019-02-24T01:01:07.629Z,3.83
2019-02-24T01:02:40.018Z,4.37
2019-02-24T01:04:12.421Z,4.57
2019-02-24T01:05:44.847Z,4.57
2019-02-24T01:07:17.261Z,4.07
2019-02-24T01:08:49.653Z,4.53
2019-02-24T01:10:22.051Z,4.67
2019-02-24T01:11:54.467Z,3.77
2019-02-24T01:13:26.790Z,5.10
2019-02-24T01:14:59.123Z,3.77
2019-02-24T01:16:31.543Z,3.97
2019-02-24T01:18:03.941Z,4.70
2019-02-24T01:19:36.272Z,4.00
2019-02-24T01:21:08.671Z,3.50
2019-02-24T01:22:41.165Z,4.77
2019-02-24T01:24:13.563Z,2.80
2019-02-24T01:25:46.026Z,3.00
2019-02-24T01:27:18.447Z,4.17
2019-02-24T01:28:51.042Z,3.07
2019-02-24T01:30:23.508Z,4.33
2019-02-24T01:31:55.904Z,4.23
2019-02-24T01:33:28.327Z,4.10
2019-02-24T01:35:00.721Z,4.60
2019-02-24T01:36:33.118Z,3.17
2019-02-24T01:38:05.459Z,4.23
2019-02-24T01:39:37.848Z,4.40
2019-02-24T01:41:10.245Z,4.43
2019-02-24T01:42:42.660Z,3.73
2019-02-24T01:44:15.059Z,3.33
2019-02-24T01:45:47.535Z,3.87
2019-02-24T01:47:19.934Z,4.60
2019-02-24T01:48:52.342Z,3.83
2019-02-24T01:50:24.819Z,3.93
2019-02-24T01:51:57.150Z,5.93
2019-02-24T01:53:29.569Z,3.70
2019-02-24T01:55:01.966Z,4.13
2019-02-24T01:56:34.295Z,3.47
2019-02-24T01:58:06.649Z,3.57
2019-02-24T01:59:39.134Z,3.10
2019-02-24T02:01:11.463Z,3.57
2019-02-24T02:02:43.864Z,4.50
2019-02-24T02:04:16.371Z,3.37
2019-02-24T02:05:48.820Z,4.50
2019-02-24T02:07:21.218Z,3.67
2019-02-24T02:08:53.607Z,3.33
2019-02-24T02:10:25.951Z,5.07
2019-02-24T02:11:58.357Z,3.67
2019-02-24T02:13:30.681Z,6.77
2019-02-24T02:15:03.034Z,6.23
2019-02-24T02:16:35.444Z,3.97
2019-02-24T02:18:07.921Z,3.97
2019-02-24T02:19:40.310Z,4.63
2019-02-24T02:21:12.726Z,4.33
2019-02-24T02:22:45.126Z,2.77
2019-02-24T02:24:17.453Z,5.47
2019-02-24T02:25:49.874Z,2.87
2019-02-24T02:27:22.270Z,3.97
2019-02-24T02:28:54.608Z,4.00
2019-02-24T02:30:27.019Z,4.20
2019-02-24T02:31:59.419Z,4.07
2019-02-24T02:33:31.750Z,5.53
2019-02-24T02:35:04.143Z,4.67
2019-02-24T02:36:36.562Z,3.93
2019-02-24T02:38:08.906Z,4.30
2019-02-24T02:39:41.366Z,3.53
2019-02-24T02:41:13.854Z,4.87
2019-02-24T02:42:46.257Z,4.97
2019-02-24T02:44:18.724Z,3.97
2019-02-24T02:45:51.189Z,6.17
2019-02-24T02:47:23.546Z,4.03
2019-02-24T02:48:55.874Z,4.97
2019-02-24T02:50:28.266Z,3.97
2019-02-24T02:52:00.612Z,3.73
2019-02-24T02:53:33.015Z,5.40
2019-02-24T02:55:05.416Z,4.53
2019-02-24T02:56:37.819Z,8.47
2019-02-24T02:58:10.243Z,4.47
2019-02-24T02:59:42.642Z,3.43
2019-02-24T03:01:14.969Z,4.10
2019-02-24T03:02:47.382Z,4.50
2019-02-24T03:04:19.788Z,4.80
2019-02-24T03:05:52.126Z,5.77
2019-02-24T03:07:24.586Z,3.80
2019-02-24T03:08:57.005Z,4.57
2019-02-24T03:10:29.337Z,3.63
2019-02-24T03:12:01.807Z,4.80
2019-02-24T03:13:34.229Z,5.53
2019-02-24T03:15:06.622Z,3.23
2019-02-24T03:16:39.082Z,7.40
2019-02-24T03:18:11.498Z,5.73
2019-02-24T03:19:43.843Z,3.93
2019-02-24T03:21:16.208Z,4.20
2019-02-24T03:22:48.590Z,5.93
2019-02-24T03:24:20.942Z,4.00
2019-02-24T03:25:53.339Z,4.20
2019-02-24T03:27:25.771Z,4.13
2019-02-24T03:29:04.170Z,6.20
2019-02-24T03:30:32.214Z,3.97
2019-02-24T03:32:04.621Z,4.50
2019-02-24T03:33:37.040Z,5.07
2019-02-24T03:35:09.507Z,7.30
2019-02-24T03:36:41.907Z,3.90
2019-02-24T03:38:14.236Z,2.83
2019-02-24T03:39:46.738Z,3.93
2019-02-24T03:41:19.229Z,4.10
2019-02-24T03:42:51.790Z,3.70
2019-02-24T03:44:24.136Z,4.83
2019-02-24T03:45:56.470Z,7.07
2019-02-24T03:47:28.886Z,5.40
2019-02-24T03:49:01.211Z,3.80
2019-02-24T03:50:33.619Z,6.00
2019-02-24T03:52:06.012Z,3.80
2019-02-24T03:53:38.425Z,4.23
2019-02-24T03:55:10.771Z,4.10
2019-02-24T03:56:43.174Z,3.53
2019-02-24T03:58:15.648Z,3.27
2019-02-24T03:59:48.075Z,3.87
2019-02-24T04:01:20.487Z,3.80
2019-02-24T04:02:52.891Z,3.43
2019-02-24T04:04:25.287Z,4.43
2019-02-24T04:05:57.626Z,3.40
2019-02-24T04:07:30.028Z,3.17
2019-02-24T04:09:02.376Z,4.63
2019-02-24T04:10:34.775Z,4.27
2019-02-24T04:12:07.095Z,3.50
2019-02-24T04:13:39.487Z,4.40
2019-02-24T04:15:11.817Z,5.47
2019-02-24T04:16:44.318Z,3.93
2019-02-24T04:18:16.743Z,4.63
2019-02-24T04:19:49.149Z,3.87
2019-02-24T04:21:21.504Z,5.00
2019-02-24T04:22:53.902Z,4.80
2019-02-24T04:24:26.230Z,4.37
2019-02-24T04:25:58.699Z,3.10
2019-02-24T04:27:31.108Z,3.20
2019-02-24T04:29:03.510Z,7.07
2019-02-24T04:30:35.978Z,4.47
2019-02-24T04:32:08.382Z,4.33
2019-02-24T04:33:40.710Z,4.73
2019-02-24T04:35:13.115Z,3.87
2019-02-24T04:36:45.509Z,4.37
2019-02-24T04:38:17.934Z,4.17
2019-02-24T04:39:50.335Z,4.63
2019-02-24T04:41:22.742Z,3.70
2019-02-24T04:42:55.151Z,4.07
2019-02-24T04:44:29.182Z,5.67
2019-02-24T04:46:01.578Z,3.60
2019-02-24T04:47:34.007Z,4.23
2019-02-24T04:49:06.463Z,4.40
2019-02-24T04:50:38.882Z,6.60
2019-02-24T04:52:11.216Z,4.53
2019-02-24T04:53:43.782Z,4.57
2019-02-24T04:55:16.179Z,4.47
2019-02-24T04:56:48.584Z,6.63
2019-02-24T04:58:21.066Z,4.93
2019-02-24T04:59:53.542Z,5.70
2019-02-24T05:01:25.946Z,5.93
2019-02-24T05:02:58.413Z,3.97
2019-02-24T05:04:30.915Z,5.03
2019-02-24T05:06:03.324Z,3.60
2019-02-24T05:07:35.733Z,3.80
2019-02-24T05:09:08.216Z,6.67
2019-02-24T05:10:40.538Z,4.80
2019-02-24T05:12:13.330Z,6.20
2019-02-24T05:13:45.929Z,4.10
2019-02-24T05:15:18.289Z,3.87
2019-02-24T05:16:50.626Z,4.10
2019-02-24T05:18:23.266Z,3.03
2019-02-24T05:19:55.782Z,3.57
2019-02-24T05:21:28.701Z,4.57
2019-02-24T05:23:01.103Z,4.57
2019-02-24T05:24:33.550Z,5.43
2019-02-24T05:26:05.949Z,4.47
2019-02-24T05:27:38.420Z,4.10
2019-02-24T05:29:10.830Z,4.10
2019-02-24T05:30:43.318Z,4.50
2019-02-24T05:32:15.710Z,7.60
2019-02-24T05:33:48.036Z,2.80
2019-02-24T05:35:20.451Z,5.13
2019-02-24T05:36:52.779Z,5.47
2019-02-24T05:38:25.105Z,5.43
2019-02-24T05:39:57.574Z,3.90
2019-02-24T05:41:30.058Z,2.83
2019-02-24T05:43:02.467Z,3.77
2019-02-24T05:44:34.943Z,4.50
2019-02-24T05:46:07.428Z,4.70
2019-02-24T05:47:39.804Z,4.23
2019-02-24T05:49:12.234Z,3.43
2019-02-24T05:50:44.697Z,4.93
2019-02-24T05:52:17.051Z,4.20
2019-02-24T05:53:49.455Z,4.80
2019-02-24T05:55:21.854Z,3.27
2019-02-24T05:56:54.278Z,3.73
2019-02-24T05:58:26.980Z,3.23
2019-02-24T05:59:59.451Z,3.83
2019-02-24T06:01:31.858Z,6.23
2019-02-24T06:03:04.275Z,4.23
2019-02-24T06:04:36.597Z,2.87
2019-02-24T06:06:08.922Z,5.57
2019-02-24T06:07:41.330Z,4.50
2019-02-24T06:09:13.735Z,4.67
2019-02-24T06:10:46.057Z,3.97
2019-02-24T06:12:18.462Z,4.47
2019-02-24T06:13:52.152Z,5.50
2019-02-24T06:15:24.705Z,3.83
2019-02-24T06:16:57.096Z,3.43
2019-02-24T06:18:29.524Z,6.33
2019-02-24T06:20:01.923Z,4.93
2019-02-24T06:21:34.317Z,5.27
2019-02-24T06:23:06.806Z,4.30
2019-02-24T06:24:39.210Z,6.07
2019-02-24T06:26:11.608Z,4.70
2019-02-24T06:27:44.088Z,6.67
2019-02-24T06:29:16.451Z,4.73
2019-02-24T06:30:48.918Z,4.70
2019-02-24T06:32:21.326Z,3.67
2019-02-24T06:33:53.751Z,3.97
2019-02-24T06:35:26.143Z,4.33
2019-02-24T06:36:58.535Z,5.20
2019-02-24T06:38:30.924Z,4.67
2019-02-24T06:40:03.771Z,6.33
2019-02-24T06:41:36.175Z,5.63
2019-02-24T06:43:08.498Z,4.40
2019-02-24T06:44:40.991Z,5.80
2019-02-24T06:46:13.390Z,4.33
2019-02-24T06:47:45.851Z,5.63
2019-02-24T06:49:18.387Z,4.57
2019-02-24T06:50:50.967Z,4.57
2019-02-24T06:52:23.359Z,4.57
2019-02-24T06:53:55.703Z,4.73
2019-02-24T06:55:28.050Z,5.67
2019-02-24T06:57:00.384Z,5.43
2019-02-24T06:58:32.788Z,5.57
2019-02-24T07:00:13.597Z,4.20
2019-02-24T07:01:39.295Z,4.30
2019-02-24T07:03:11.695Z,5.17
2019-02-24T07:04:44.326Z,5.67
2019-02-24T07:06:16.750Z,4.87
2019-02-24T07:07:49.214Z,4.50
2019-02-24T07:09:21.611Z,5.53
2019-02-24T07:10:54.113Z,3.90
2019-02-24T07:12:26.511Z,5.03
2019-02-24T07:13:58.911Z,5.20
2019-02-24T07:15:31.254Z,4.27
2019-02-24T07:17:03.676Z,5.17
2019-02-24T07:18:36.070Z,4.37
2019-02-24T07:20:08.399Z,4.40
2019-02-24T07:21:40.810Z,5.17
2019-02-24T07:23:13.212Z,7.23
2019-02-24T07:24:45.602Z,5.40
2019-02-24T07:26:18.026Z,3.90
2019-02-24T07:27:50.463Z,6.00
2019-02-24T07:29:22.784Z,5.47
2019-02-24T07:30:55.174Z,4.17
2019-02-24T07:32:27.586Z,4.80
2019-02-24T07:33:59.907Z,3.53
2019-02-24T07:35:32.311Z,4.73
2019-02-24T07:37:12.738Z,4.50
2019-02-24T07:38:38.782Z,4.13
2019-02-24T07:40:12.745Z,4.27
2019-02-24T07:41:45.135Z,5.47
2019-02-24T07:43:17.533Z,4.60
2019-02-24T07:44:49.936Z,4.67
2019-02-24T07:46:22.334Z,3.43
2019-02-24T07:47:54.698Z,6.10
2019-02-24T07:49:27.146Z,5.27
2019-02-24T07:50:59.542Z,4.00
2019-02-24T07:52:31.866Z,3.87
2019-02-24T07:54:04.391Z,5.53
2019-02-24T07:55:36.732Z,4.40
2019-02-24T07:57:09.055Z,5.60
2019-02-24T07:58:41.459Z,7.90
2019-02-24T08:00:13.863Z,6.83
2019-02-24T08:01:46.189Z,5.20
2019-02-24T08:03:18.758Z,5.03
2019-02-24T08:04:51.178Z,4.00
2019-02-24T08:06:23.571Z,6.73
2019-02-24T08:07:55.969Z,4.37
2019-02-24T08:09:28.396Z,3.77
2019-02-24T08:11:00.720Z,5.73
2019-02-24T08:12:33.419Z,4.10
2019-02-24T08:14:06.102Z,5.13
2019-02-24T08:15:38.527Z,4.40
2019-02-24T08:17:11.234Z,5.50
2019-02-24T08:18:49.540Z,5.63
2019-02-24T08:20:18.863Z,4.80
2019-02-24T08:21:51.723Z,4.83
2019-02-24T08:23:24.674Z,7.20
2019-02-24T08:24:57.211Z,5.00
2019-02-24T08:26:30.706Z,4.10
2019-02-24T08:28:04.235Z,6.50
2019-02-24T08:29:36.856Z,6.37
2019-02-24T08:31:09.535Z,6.20
2019-02-24T08:32:42.537Z,6.30
2019-02-24T08:34:16.802Z,4.67
2019-02-24T08:35:50.782Z,4.63
2019-02-24T08:37:24.661Z,4.37
2019-02-24T08:38:57.182Z,4.13
2019-02-24T08:40:29.917Z,5.10
2019-02-24T08:42:02.746Z,7.57
2019-02-24T08:43:35.425Z,6.90
2019-02-24T08:45:07.890Z,6.87
2019-02-24T08:46:40.315Z,5.73
2019-02-24T08:48:12.646Z,14.60
2019-02-24T08:49:44.971Z,6.50
2019-02-24T08:51:18.625Z,6.30
2019-02-24T08:52:50.966Z,8.03
2019-02-24T08:54:24.663Z,5.67
2019-02-24T08:55:57.018Z,4.87
2019-02-24T08:57:29.675Z,7.27
2019-02-24T08:59:02.066Z,5.57
2019-02-24T09:00:34.469Z,8.43
2019-02-24T09:02:06.820Z,8.60
2019-02-24T09:03:39.293Z,6.93
2019-02-24T09:05:11.695Z,6.67
2019-02-24T09:06:44.024Z,5.50
2019-02-24T09:08:16.450Z,6.10
2019-02-24T09:09:49.115Z,5.80
2019-02-24T09:11:21.439Z,7.50
2019-02-24T09:12:53.846Z,6.13
2019-02-24T09:14:26.242Z,6.47
2019-02-24T09:15:58.769Z,6.57
2019-02-24T09:17:31.432Z,6.53
2019-02-24T09:19:04.027Z,5.97
2019-02-24T09:20:36.354Z,6.20
2019-02-24T09:22:08.766Z,10.33
2019-02-24T09:23:41.111Z,6.50
2019-02-24T09:25:13.516Z,8.93
2019-02-24T09:26:45.842Z,8.73
2019-02-24T09:28:18.337Z,7.57
2019-02-24T09:29:50.831Z,8.77
2019-02-24T09:31:23.723Z,5.87
2019-02-24T09:32:56.121Z,7.70
2019-02-24T09:34:28.463Z,7.40
2019-02-24T09:36:00.859Z,6.77
2019-02-24T09:37:33.355Z,7.83
2019-02-24T09:39:05.707Z,6.37
2019-02-24T09:40:38.038Z,9.27
2019-02-24T09:42:10.438Z,8.47
2019-02-24T09:43:42.772Z,6.27
2019-02-24T09:45:15.187Z,6.87
2019-02-24T09:46:47.651Z,6.80
2019-02-24T09:48:19.983Z,6.27
2019-02-24T09:49:52.401Z,7.17
2019-02-24T09:51:24.873Z,10.73
2019-02-24T09:52:57.226Z,10.77
2019-02-24T09:54:29.701Z,7.07
2019-02-24T09:56:02.415Z,6.53
2019-02-24T09:57:36.907Z,8.37
2019-02-24T09:59:08.967Z,6.97
2019-02-24T10:00:41.361Z,6.90
2019-02-24T10:02:13.765Z,7.63
2019-02-24T10:03:46.098Z,8.87
2019-02-24T10:05:18.564Z,10.80
2019-02-24T10:06:50.991Z,8.37
2019-02-24T10:08:23.543Z,6.67
2019-02-24T10:09:56.049Z,8.43
2019-02-24T10:11:28.400Z,8.03
2019-02-24T10:13:00.798Z,6.30
2019-02-24T10:14:33.229Z,8.80
2019-02-24T10:16:05.639Z,6.73
2019-02-24T10:17:37.984Z,6.60
2019-02-24T10:19:10.371Z,7.30
2019-02-24T10:20:42.708Z,12.90
2019-02-24T10:22:15.558Z,6.23
2019-02-24T10:23:47.951Z,7.40
2019-02-24T10:25:20.308Z,5.73
2019-02-24T10:26:52.707Z,7.17
2019-02-24T10:28:25.106Z,8.40
2019-02-24T10:29:57.435Z,10.57
2019-02-24T10:31:29.768Z,7.63
2019-02-24T10:33:02.190Z,9.00
2019-02-24T10:34:34.589Z,8.23
2019-02-24T10:36:06.987Z,7.33
2019-02-24T10:37:39.405Z,7.17
2019-02-24T10:39:11.811Z,7.90
2019-02-24T10:40:44.279Z,6.30
2019-02-24T10:42:16.675Z,8.73
2019-02-24T10:43:49.019Z,7.83
2019-02-24T10:45:21.423Z,6.13
2019-02-24T10:46:53.829Z,9.03
2019-02-24T10:48:26.272Z,7.97
2019-02-24T10:49:58.752Z,7.70
2019-02-24T10:51:31.151Z,7.47
2019-02-24T10:53:03.583Z,11.07
2019-02-24T10:54:35.994Z,6.63
2019-02-24T10:56:08.467Z,7.57
2019-02-24T10:57:40.867Z,6.37
2019-02-24T10:59:13.279Z,6.97
2019-02-24T11:00:45.674Z,7.27
2019-02-24T11:02:18.019Z,7.57
2019-02-24T11:03:50.687Z,7.43
2019-02-24T11:05:23.098Z,6.33
2019-02-24T11:06:55.440Z,7.50
2019-02-24T11:08:27.775Z,7.23
2019-02-24T11:10:00.352Z,9.87
2019-02-24T11:11:32.802Z,8.43
2019-02-24T11:13:05.273Z,11.37
2019-02-24T11:14:37.758Z,7.53
2019-02-24T11:16:10.082Z,7.97
2019-02-24T11:17:42.477Z,8.53
2019-02-24T11:19:14.877Z,7.03
2019-02-24T11:20:47.221Z,8.67
2019-02-24T11:22:19.687Z,8.70
2019-02-24T11:23:52.086Z,7.30
2019-02-24T11:25:24.739Z,7.80
2019-02-24T11:26:57.215Z,7.87
2019-02-24T11:28:29.542Z,8.77
2019-02-24T11:30:01.867Z,6.37
2019-02-24T11:31:38.427Z,7.40
2019-02-24T11:33:08.377Z,7.17
2019-02-24T11:34:40.699Z,6.40
2019-02-24T11:36:13.187Z,7.70
2019-02-24T11:37:45.585Z,6.50
2019-02-24T11:39:17.902Z,7.70
2019-02-24T11:40:50.321Z,7.00
2019-02-24T11:42:22.887Z,8.07
2019-02-24T11:43:55.278Z,7.70
2019-02-24T11:45:27.615Z,8.00
2019-02-24T11:47:00.080Z,6.13
2019-02-24T11:48:32.426Z,8.17
2019-02-24T11:50:04.840Z,11.27
2019-02-24T11:51:37.183Z,8.07
2019-02-24T11:53:09.506Z,11.40
2019-02-24T11:54:41.901Z,6.20
2019-02-24T11:56:14.302Z,8.47
2019-02-24T11:57:46.638Z,8.93
2019-02-24T11:59:19.039Z,8.87
2019-02-24T12:00:51.360Z,7.43
2019-02-24T12:02:23.708Z,10.10
2019-02-24T12:03:56.111Z,7.90
2019-02-24T12:05:28.437Z,9.00
2019-02-24T12:07:00.780Z,10.23
2019-02-24T12:08:33.275Z,7.47
2019-02-24T12:10:05.670Z,8.53
2019-02-24T12:11:38.076Z,6.90
2019-02-24T12:13:10.498Z,9.37
2019-02-24T12:14:43.194Z,6.33
2019-02-24T12:16:15.526Z,5.97
2019-02-24T12:17:47.950Z,7.90
2019-02-24T12:19:20.357Z,9.00
2019-02-24T12:20:52.764Z,6.93
2019-02-24T12:22:25.093Z,7.03
2019-02-24T12:23:57.520Z,6.93
2019-02-24T12:25:29.922Z,7.40
2019-02-24T12:27:02.390Z,7.17
2019-02-24T12:28:34.810Z,7.03
2019-02-24T12:30:07.150Z,7.87
2019-02-24T12:31:39.614Z,6.87
2019-02-24T12:33:12.111Z,7.73
2019-02-24T12:34:44.510Z,11.57
2019-02-24T12:36:16.917Z,6.17
2019-02-24T12:37:49.395Z,7.37
2019-02-24T12:39:21.732Z,9.80
2019-02-24T12:40:54.439Z,6.63
2019-02-24T12:42:26.928Z,7.37
2019-02-24T12:43:59.348Z,8.27
2019-02-24T12:45:31.970Z,8.50
2019-02-24T12:47:04.434Z,7.50
2019-02-24T12:48:36.854Z,8.40
2019-02-24T12:50:09.272Z,6.80
2019-02-24T12:51:41.674Z,8.30
2019-02-24T12:53:16.184Z,9.53
2019-02-24T12:54:48.597Z,6.83
2019-02-24T12:56:20.924Z,6.70
2019-02-24T12:57:53.251Z,6.70
2019-02-24T12:59:25.658Z,8.40
2019-02-24T13:00:58.120Z,7.93
2019-02-24T13:02:30.482Z,7.87
2019-02-24T13:04:02.878Z,7.50
2019-02-24T13:05:35.291Z,7.27
2019-02-24T13:07:07.696Z,7.03
2019-02-24T13:08:40.099Z,7.87
2019-02-24T13:10:12.515Z,10.00
2019-02-24T13:11:44.918Z,6.30
2019-02-24T13:13:17.310Z,9.20
2019-02-24T13:14:49.702Z,7.83
2019-02-24T13:16:22.052Z,11.33
2019-02-24T13:17:54.442Z,5.77
2019-02-24T13:19:27.138Z,10.60
2019-02-24T13:20:59.569Z,6.77
2019-02-24T13:22:32.036Z,7.30
2019-02-24T13:24:04.508Z,6.70
2019-02-24T13:25:36.936Z,10.33
2019-02-24T13:27:09.336Z,8.73
2019-02-24T13:28:50.104Z,9.77
2019-02-24T13:30:15.897Z,7.50
2019-02-24T13:31:48.322Z,14.70
2019-02-24T13:33:20.794Z,7.27
2019-02-24T13:34:53.198Z,10.13
2019-02-24T13:36:25.616Z,8.07
2019-02-24T13:37:57.981Z,10.13
2019-02-24T13:39:30.386Z,8.23
2019-02-24T13:41:02.788Z,9.53
2019-02-24T13:42:35.303Z,7.73
2019-02-24T13:44:07.672Z,11.80
2019-02-24T13:45:40.075Z,7.40
2019-02-24T13:47:12.494Z,8.40
2019-02-24T13:48:44.832Z,8.97
2019-02-24T13:50:17.303Z,9.43
2019-02-24T13:51:49.762Z,6.13
2019-02-24T13:53:22.222Z,7.17
2019-02-24T13:54:54.619Z,10.63
2019-02-24T13:56:26.950Z,8.50
2019-02-24T13:57:59.630Z,8.67
2019-02-24T13:59:32.094Z,7.93
2019-02-24T14:01:04.573Z,7.00
2019-02-24T14:02:36.975Z,10.70
2019-02-24T14:04:09.386Z,8.20
2019-02-24T14:05:41.780Z,9.27
2019-02-24T14:07:14.109Z,8.03
2019-02-24T14:08:46.599Z,7.87
2019-02-24T14:10:18.995Z,7.90
2019-02-24T14:11:52.340Z,8.57
2019-02-24T14:13:24.754Z,6.27
2019-02-24T14:14:57.108Z,8.80
2019-02-24T14:16:29.433Z,7.93
2019-02-24T14:18:02.042Z,7.57
2019-02-24T14:19:34.467Z,7.13
2019-02-24T14:21:06.870Z,9.17
2019-02-24T14:22:39.199Z,8.63
2019-02-24T14:24:11.618Z,9.70
2019-02-24T14:25:44.107Z,11.27
2019-02-24T14:27:16.451Z,10.33
2019-02-24T14:28:48.926Z,7.40
2019-02-24T14:30:21.339Z,7.00
2019-02-24T14:31:53.680Z,8.57
2019-02-24T14:33:26.150Z,6.53
2019-02-24T14:34:58.566Z,7.70
2019-02-24T14:36:30.914Z,7.00
2019-02-24T14:38:03.353Z,6.77
2019-02-24T14:39:35.747Z,9.87
2019-02-24T14:41:08.977Z,11.83
2019-02-24T14:42:41.476Z,6.47
2019-02-24T14:44:13.925Z,10.70
2019-02-24T14:45:49.666Z,5.80
2019-02-24T14:47:20.855Z,7.07
2019-02-24T14:48:53.192Z,8.60
2019-02-24T14:50:25.598Z,5.57
2019-02-24T14:51:57.963Z,7.77
2019-02-24T14:53:30.438Z,5.93
2019-02-24T14:55:02.773Z,9.03
2019-02-24T14:56:35.199Z,5.50
2019-02-24T14:58:07.859Z,8.63
2019-02-24T14:59:40.267Z,5.53
2019-02-24T15:01:12.663Z,8.50
2019-02-24T15:02:45.083Z,8.47
2019-02-24T15:04:17.658Z,7.80
2019-02-24T15:05:50.055Z,6.53
2019-02-24T15:07:22.583Z,8.53
2019-02-24T15:08:54.919Z,9.03
2019-02-24T15:10:27.339Z,6.47
2019-02-24T15:11:59.904Z,6.73
2019-02-24T15:13:32.262Z,6.57
2019-02-24T15:15:05.038Z,9.00
2019-02-24T15:16:37.438Z,7.90
2019-02-24T15:18:09.783Z,8.73
2019-02-24T15:19:42.195Z,7.20
2019-02-24T15:21:14.684Z,6.45
2019-02-24T15:22:47.029Z,7.50
2019-02-24T15:24:19.452Z,7.50
2019-02-24T15:25:51.864Z,5.87
2019-02-24T15:27:24.326Z,6.13
2019-02-24T15:28:56.747Z,5.93
2019-02-24T15:30:29.149Z,8.87
2019-02-24T15:32:01.567Z,8.00
2019-02-24T15:33:34.063Z,6.63
2019-02-24T15:35:06.604Z,4.33
2019-02-24T15:36:39.022Z,6.70
2019-02-24T15:38:11.451Z,5.53
2019-02-24T15:39:43.884Z,7.53
2019-02-24T15:41:16.211Z,5.40
2019-02-24T15:42:48.533Z,4.63
2019-02-24T15:44:20.963Z,5.63
2019-02-24T15:45:53.374Z,4.63
2019-02-24T15:47:25.774Z,6.40
2019-02-24T15:48:58.267Z,7.03
2019-02-24T15:50:30.602Z,4.27
2019-02-24T15:52:09.680Z,6.50
2019-02-24T15:53:37.042Z,4.53
2019-02-24T15:55:09.390Z,8.40
2019-02-24T15:56:41.790Z,6.83
2019-02-24T15:58:14.188Z,6.03
2019-02-24T15:59:46.599Z,4.23
2019-02-24T16:01:21.279Z,6.03
2019-02-24T16:03:02.427Z,6.20
2019-02-24T16:04:35.515Z,6.97
2019-02-24T16:06:07.937Z,6.13
2019-02-24T16:07:40.348Z,4.77
2019-02-24T16:09:12.675Z,6.20
2019-02-24T16:10:45.095Z,4.53
2019-02-24T16:12:17.495Z,6.13
2019-02-24T16:13:49.823Z,5.10
2019-02-24T16:15:22.346Z,6.60
2019-02-24T16:16:54.815Z,3.90
2019-02-24T16:18:27.138Z,4.10
2019-02-24T16:19:59.530Z,5.53
2019-02-24T16:21:31.960Z,8.77
2019-02-24T16:23:04.364Z,5.70
2019-02-24T16:24:36.773Z,5.87
2019-02-24T16:26:09.275Z,6.03
2019-02-24T16:27:41.675Z,4.20
2019-02-24T16:29:14.075Z,5.77
2019-02-24T16:30:46.486Z,7.80
2019-02-24T16:32:18.880Z,6.97
2019-02-24T16:33:51.471Z,6.67
2019-02-24T16:35:23.876Z,5.97
2019-02-24T16:36:56.291Z,9.63
2019-02-24T16:38:28.611Z,7.20
2019-02-24T16:40:01.014Z,9.87
2019-02-24T16:41:33.414Z,7.47
2019-02-24T16:43:05.827Z,7.00
2019-02-24T16:44:38.215Z,7.87
2019-02-24T16:46:10.543Z,6.57
2019-02-24T16:47:42.958Z,9.33
2019-02-24T16:49:15.364Z,8.53
2019-02-24T16:50:47.691Z,8.80
2019-02-24T16:52:20.103Z,12.47
2019-02-24T16:53:52.527Z,10.53
2019-02-24T16:55:24.855Z,12.50
2019-02-24T16:57:04.740Z,11.37
2019-02-24T16:58:31.359Z,11.33
2019-02-24T17:00:03.687Z,16.87
2019-02-24T17:01:36.084Z,9.50
2019-02-24T17:03:08.573Z,10.60
2019-02-24T17:04:53.012Z,7.47
2019-02-24T17:06:24.286Z,8.77
2019-02-24T17:08:05.009Z,9.80
2019-02-24T17:09:47.820Z,8.70
2019-02-24T17:11:28.565Z,7.67
2019-02-24T17:13:12.069Z,9.33
2019-02-24T17:14:46.964Z,12.20
2019-02-24T17:16:19.738Z,6.90
2019-02-24T17:17:52.295Z,10.47
2019-02-24T17:19:24.852Z,9.23
2019-02-24T17:20:57.179Z,8.73
2019-02-24T17:22:29.664Z,8.27
2019-02-24T17:24:02.007Z,10.63
2019-02-24T17:25:34.406Z,7.47
2019-02-24T17:27:07.080Z,7.47
2019-02-24T17:28:39.590Z,9.63
2019-02-24T17:30:11.991Z,8.80
2019-02-24T17:31:44.393Z,10.10
2019-02-24T17:33:17.851Z,8.27
2019-02-24T17:34:50.235Z,7.37
2019-02-24T17:36:22.822Z,9.13
2019-02-24T17:37:55.540Z,10.53
2019-02-24T17:39:28.004Z,7.77
2019-02-24T17:41:15.715Z,6.60
2019-02-24T17:42:52.576Z,7.57
2019-02-24T17:44:25.182Z,10.93
2019-02-24T17:45:57.595Z,9.70
2019-02-24T17:47:29.943Z,6.40
2019-02-24T17:49:02.435Z,11.07
2019-02-24T17:50:34.937Z,10.13
2019-02-24T17:52:07.360Z,9.17
2019-02-24T17:53:40.063Z,7.00
2019-02-24T17:55:12.492Z,9.67
2019-02-24T17:56:44.885Z,8.47
2019-02-24T17:58:17.313Z,7.30
2019-02-24T17:59:49.645Z,11.33
2019-02-24T18:01:22.067Z,9.97
2019-02-24T18:02:54.474Z,8.97
2019-02-24T18:04:26.943Z,8.13
2019-02-24T18:05:59.363Z,8.90
2019-02-24T18:07:31.754Z,8.40
2019-02-24T18:09:04.149Z,9.93
2019-02-24T18:10:36.943Z,10.43
2019-02-24T18:12:09.661Z,8.33
2019-02-24T18:13:42.131Z,9.03
2019-02-24T18:15:14.499Z,7.27
2019-02-24T18:16:46.914Z,8.33
2019-02-24T18:18:19.976Z,8.27
2019-02-24T18:19:52.374Z,8.50
2019-02-24T18:21:24.791Z,12.30
2019-02-24T18:22:57.358Z,10.53
2019-02-24T18:24:29.794Z,11.53
2019-02-24T18:26:02.187Z,9.23
2019-02-24T18:27:34.595Z,10.20
2019-02-24T18:29:06.925Z,8.90
2019-02-24T18:30:39.323Z,9.63
2019-02-24T18:32:11.822Z,14.23
2019-02-24T18:33:48.397Z,8.40
2019-02-24T18:35:18.399Z,9.73
2019-02-24T18:36:50.949Z,9.90
2019-02-24T18:38:23.367Z,9.20
2019-02-24T18:39:55.836Z,13.97
2019-02-24T18:41:28.235Z,8.23
2019-02-24T18:43:00.902Z,8.33
2019-02-24T18:44:33.407Z,7.30
2019-02-24T18:46:05.816Z,11.67
2019-02-24T18:47:38.583Z,9.10
2019-02-24T18:49:11.119Z,11.53
2019-02-24T18:50:43.700Z,11.47
2019-02-24T18:52:16.097Z,11.97
2019-02-24T18:53:48.524Z,10.73
2019-02-24T18:55:20.994Z,9.37
2019-02-24T18:56:53.398Z,12.73
2019-02-24T18:58:25.797Z,9.43
2019-02-24T18:59:58.211Z,12.70
2019-02-24T19:01:30.616Z,11.10
2019-02-24T19:03:03.735Z,9.63
2019-02-24T19:04:43.331Z,9.77
2019-02-24T19:06:18.799Z,13.13
2019-02-24T19:07:51.199Z,13.30
2019-02-24T19:09:23.782Z,13.30
2019-02-24T19:10:56.245Z,9.67
2019-02-24T19:12:28.842Z,11.03
2019-02-24T19:14:09.296Z,8.47
2019-02-24T19:15:42.139Z,13.47
2019-02-24T19:17:15.107Z,11.87
2019-02-24T19:18:47.511Z,12.10
2019-02-24T19:20:19.925Z,11.03
2019-02-24T19:21:53.144Z,12.17
2019-02-24T19:23:25.630Z,13.93
2019-02-24T19:24:58.055Z,14.63
2019-02-24T19:26:30.663Z,11.47
2019-02-24T19:28:03.143Z,11.20
2019-02-24T19:29:35.775Z,10.90
2019-02-24T19:31:08.528Z,13.00
2019-02-24T19:32:40.963Z,11.10
2019-02-24T19:34:13.302Z,12.60
2019-02-24T19:35:45.786Z,13.47
2019-02-24T19:37:20.798Z,14.17
2019-02-24T19:38:52.591Z,13.83
2019-02-24T19:40:25.088Z,9.30
2019-02-24T19:41:57.674Z,12.20
2019-02-24T19:43:30.110Z,12.50
2019-02-24T19:45:02.698Z,16.23
2019-02-24T19:46:35.302Z,9.57
2019-02-24T19:48:07.771Z,10.00
2019-02-24T19:49:40.254Z,11.50
2019-02-24T19:51:12.752Z,10.23
2019-02-24T19:52:45.411Z,13.00
2019-02-24T19:54:17.903Z,9.30
2019-02-24T19:55:50.321Z,10.30
2019-02-24T19:57:23.121Z,11.77
2019-02-24T19:58:55.706Z,12.23
2019-02-24T20:00:28.191Z,10.43
2019-02-24T20:02:00.599Z,11.43
2019-02-24T20:03:33.094Z,13.30
2019-02-24T20:05:05.587Z,12.00
2019-02-24T20:06:37.995Z,11.47
2019-02-24T20:08:10.475Z,14.87
2019-02-24T20:09:43.332Z,10.17
2019-02-24T20:11:15.776Z,11.43
2019-02-24T20:12:48.190Z,11.30
2019-02-24T20:14:20.694Z,11.20
2019-02-24T20:15:53.099Z,12.40
2019-02-24T20:17:25.767Z,11.07
2019-02-24T20:18:58.193Z,11.57
2019-02-24T20:20:30.542Z,12.97
2019-02-24T20:22:03.015Z,9.77
2019-02-24T20:23:35.623Z,12.60
2019-02-24T20:25:08.238Z,11.93
2019-02-24T20:26:40.647Z,11.90
2019-02-24T20:28:13.210Z,12.53